Time;durP1;ratioP1;P1;durP2;ratioP2;P2;SDS_P1;SDS_P2;PMS_P1;PMS_P2;Temp;Humidity;BMP_temperature;BMP_pressure;BME280_temperature;BME280_humidity;BME280_pressure;Samples;Min_cycle;Max_cycle;Signal;HPM_P1;HPM_P2
2021/05/19 00:01:24;;;;;;;2.10;1.00;;;10.50;99.90;;;;;;5052887;28;20036;-78
2021/05/19 00:03:49;;;;;;;2.10;0.90;;;10.50;99.90;;;;;;5035152;28;20374;-79
2021/05/19 00:06:15;;;;;;;1.35;0.80;;;10.30;99.90;;;;;;5035110;28;20492;-79
2021/05/19 00:08:41;;;;;;;1.60;1.02;;;10.20;99.90;;;;;;5034791;28;20029;-79
2021/05/19 00:11:07;;;;;;;4.35;1.33;;;10.30;99.90;;;;;;5034637;28;20028;-78
2021/05/19 00:13:35;;;;;;;2.28;1.02;;;10.50;99.90;;;;;;5035494;28;20472;-78
2021/05/19 00:16:02;;;;;;;2.80;0.98;;;10.60;99.90;;;;;;5056186;28;20024;-79
2021/05/19 00:18:28;;;;;;;4.50;1.17;;;10.50;99.90;;;;;;5056485;28;20052;-78
2021/05/19 00:20:54;;;;;;;1.73;1.00;;;10.60;99.90;;;;;;5038189;28;20417;-79
2021/05/19 00:23:20;;;;;;;1.52;1.10;;;10.60;99.90;;;;;;5056086;28;20060;-78
2021/05/19 00:25:45;;;;;;;2.00;0.90;;;10.40;99.90;;;;;;5056063;28;20070;-79
2021/05/19 00:28:11;;;;;;;1.67;0.93;;;10.50;99.90;;;;;;5038141;28;20036;-79
2021/05/19 00:30:37;;;;;;;2.53;0.80;;;10.70;99.90;;;;;;5038085;28;20102;-78
2021/05/19 00:33:04;;;;;;;4.03;0.95;;;10.80;99.90;;;;;;5038004;28;20106;-78
2021/05/19 00:35:30;;;;;;;1.73;0.80;;;10.70;99.90;;;;;;5037994;28;20083;-78
2021/05/19 00:37:56;;;;;;;2.60;1.20;;;10.60;99.90;;;;;;5055829;28;20461;-79
2021/05/19 00:40:22;;;;;;;1.55;0.95;;;10.50;99.90;;;;;;5037969;28;20032;-79
2021/05/19 00:42:47;;;;;;;1.75;1.00;;;10.50;99.90;;;;;;5037890;28;20025;-79
2021/05/19 00:45:14;;;;;;;3.05;0.85;;;10.50;99.90;;;;;;5055739;28;20025;-78
2021/05/19 00:47:42;;;;;;;5.00;1.20;;;10.60;99.90;;;;;;5037877;28;20029;-78
2021/05/19 00:50:11;;;;;;;3.55;0.80;;;10.70;99.90;;;;;;5037519;28;20083;-79
2021/05/19 00:52:37;;;;;;;3.10;1.10;;;10.60;99.90;;;;;;5055546;28;20048;-78
2021/05/19 00:55:04;;;;;;;4.88;1.20;;;10.60;99.90;;;;;;5037664;28;20025;-79
2021/05/19 00:57:30;;;;;;;3.33;0.82;;;10.50;99.90;;;;;;5037527;28;20098;-79
2021/05/19 00:59:58;;;;;;;4.38;1.10;;;10.60;99.90;;;;;;5037571;28;20028;-78
2021/05/19 01:02:24;;;;;;;3.58;1.45;;;10.60;99.90;;;;;;5037468;28;20029;-78
2021/05/19 01:04:50;;;;;;;1.60;0.88;;;10.60;99.90;;;;;;5055385;28;20032;-79
2021/05/19 01:07:22;;;;;;;1.45;0.80;;;10.60;99.90;;;;;;5038273;28;20032;-78
2021/05/19 01:09:48;;;;;;;2.45;1.10;;;10.60;99.90;;;;;;5037298;28;20022;-78
2021/05/19 01:12:16;;;;;;;1.63;1.08;;;10.60;99.90;;;;;;5055199;28;20044;-78
2021/05/19 01:14:43;;;;;;;1.80;1.10;;;10.70;99.90;;;;;;5055147;28;20071;-78
2021/05/19 01:17:09;;;;;;;1.63;0.90;;;10.50;99.90;;;;;;5037209;28;20392;-78
2021/05/19 01:19:40;;;;;;;2.03;1.10;;;10.40;99.90;;;;;;5055064;28;20028;-78
2021/05/19 01:22:11;;;;;;;4.18;1.25;;;10.40;99.90;;;;;;5037205;28;20392;-79
2021/05/19 01:24:39;;;;;;;1.98;1.13;;;10.40;99.90;;;;;;5037071;28;20029;-78
2021/05/19 01:27:06;;;;;;;3.90;1.00;;;10.30;99.90;;;;;;5036133;28;20074;-79
2021/05/19 01:29:32;;;;;;;2.00;1.00;;;10.30;99.90;;;;;;5054838;28;20095;-79
2021/05/19 01:31:58;;;;;;;2.35;1.15;;;10.30;99.90;;;;;;5036905;28;20061;-79
2021/05/19 01:34:24;;;;;;;2.97;1.17;;;10.50;99.90;;;;;;5054784;28;20052;-78
2021/05/19 01:36:49;;;;;;;2.90;1.05;;;10.60;99.90;;;;;;5036929;28;20520;-79
2021/05/19 01:39:15;;;;;;;2.78;1.20;;;10.60;99.90;;;;;;5054675;28;20473;-79
2021/05/19 01:41:41;;;;;;;1.35;0.90;;;10.70;99.90;;;;;;5054918;28;20092;-78
2021/05/19 01:44:14;;;;;;;4.28;1.15;;;10.50;99.90;;;;;;5036681;28;20385;-79
2021/05/19 01:46:41;;;;;;;2.75;1.08;;;10.60;99.90;;;;;;5036536;28;20017;-79
2021/05/19 01:49:08;;;;;;;5.57;1.00;;;10.50;99.90;;;;;;5036578;28;20021;-79
2021/05/19 01:51:38;;;;;;;4.05;1.10;;;10.40;99.90;;;;;;5033101;28;20045;-79
2021/05/19 01:54:06;;;;;;;2.20;1.00;;;10.30;99.90;;;;;;5033287;28;20017;-79
2021/05/19 01:56:37;;;;;;;2.22;1.10;;;10.30;99.90;;;;;;5034731;28;20097;-79
2021/05/19 01:59:03;;;;;;;1.92;1.05;;;10.40;99.90;;;;;;5034482;28;20024;-79
2021/05/19 02:01:30;;;;;;;1.75;1.25;;;10.20;99.90;;;;;;5033106;28;20551;-78
2021/05/19 02:04:10;;;;;;;1.77;0.82;;;10.20;99.90;;;;;;5033078;28;20021;-79
2021/05/19 02:06:57;;;;;;;2.33;1.00;;;10.20;99.90;;;;;;5034307;28;20020;-78
2021/05/19 02:09:25;;;;;;;1.83;0.90;;;10.20;99.90;;;;;;5033180;28;20021;-79
2021/05/19 02:11:52;;;;;;;1.50;1.00;;;10.10;99.90;;;;;;5034421;28;20028;-79
2021/05/19 02:14:19;;;;;;;1.30;1.00;;;10.20;99.90;;;;;;5016528;28;20025;-79
2021/05/19 02:16:45;;;;;;;2.35;0.90;;;10.30;99.90;;;;;;5032815;28;20017;-79
2021/05/19 02:19:13;;;;;;;1.10;0.90;;;10.40;99.90;;;;;;5034352;28;20465;-79
2021/05/19 02:21:44;;;;;;;1.50;0.90;;;10.40;99.90;;;;;;5032733;28;20029;-78
2021/05/19 02:24:13;;;;;;;1.75;1.10;;;10.40;99.90;;;;;;5032720;28;20026;-79
2021/05/19 02:26:39;;;;;;;1.70;1.10;;;10.20;99.90;;;;;;5034486;28;20029;-79
2021/05/19 02:29:06;;;;;;;1.95;1.08;;;10.20;99.90;;;;;;5032543;28;20365;-79
2021/05/19 02:31:33;;;;;;;1.13;0.90;;;10.20;99.90;;;;;;5033868;28;20022;-78
2021/05/19 02:33:59;;;;;;;1.65;0.80;;;10.20;99.90;;;;;;5032536;28;20032;-79
2021/05/19 02:36:25;;;;;;;2.75;1.10;;;10.20;99.90;;;;;;5032487;28;20108;-78
2021/05/19 02:38:51;;;;;;;3.28;1.15;;;10.10;99.90;;;;;;5032359;28;20029;-78
2021/05/19 02:41:17;;;;;;;1.00;0.90;;;10.20;99.90;;;;;;5032414;28;20052;-78
2021/05/19 02:43:42;;;;;;;4.20;0.90;;;10.20;99.90;;;;;;5032378;28;20034;-78
2021/05/19 02:46:08;;;;;;;4.22;1.23;;;10.20;99.90;;;;;;5032336;28;20033;-78
2021/05/19 02:48:34;;;;;;;5.45;1.30;;;10.20;99.90;;;;;;5032327;28;20546;-79
2021/05/19 02:51:00;;;;;;;4.20;1.00;;;10.20;99.90;;;;;;5032079;28;20053;-79
2021/05/19 02:53:26;;;;;;;2.33;1.08;;;10.20;99.90;;;;;;5033520;28;20032;-79
2021/05/19 02:55:52;;;;;;;3.13;0.82;;;10.30;99.90;;;;;;5032225;28;20052;-79
2021/05/19 02:58:19;;;;;;;0.80;0.80;;;10.20;99.90;;;;;;5033748;28;20014;-78
2021/05/19 03:00:45;;;;;;;1.45;0.95;;;10.20;99.90;;;;;;5033417;28;20060;-79
2021/05/19 03:03:11;;;;;;;3.13;1.20;;;10.30;99.90;;;;;;5032131;28;20141;-78
2021/05/19 03:05:36;;;;;;;1.70;1.13;;;10.30;99.90;;;;;;5032126;28;20546;-78
2021/05/19 03:08:03;;;;;;;3.83;1.00;;;10.30;99.90;;;;;;5033332;28;20032;-79
2021/05/19 03:10:29;;;;;;;1.35;1.00;;;10.20;99.90;;;;;;5033511;28;20469;-78
2021/05/19 03:12:56;;;;;;;2.90;1.15;;;10.20;99.90;;;;;;5033305;28;20180;-79
2021/05/19 03:15:23;;;;;;;1.60;0.90;;;10.30;99.90;;;;;;5031993;28;20032;-79
2021/05/19 03:17:49;;;;;;;2.58;0.95;;;10.20;99.90;;;;;;5033287;28;20022;-79
2021/05/19 03:20:15;;;;;;;3.05;1.33;;;9.90;99.90;;;;;;5033207;28;20033;-79
2021/05/19 03:22:41;;;;;;;2.05;1.10;;;9.80;99.90;;;;;;5031877;28;20026;-79
2021/05/19 03:25:07;;;;;;;1.52;1.10;;;9.70;99.90;;;;;;5031948;28;20033;-79
2021/05/19 03:27:34;;;;;;;1.23;0.93;;;9.90;99.90;;;;;;5033161;28;20022;-79
2021/05/19 03:30:00;;;;;;;2.55;1.10;;;9.90;99.90;;;;;;5033043;28;20440;-79
2021/05/19 03:32:26;;;;;;;2.20;1.02;;;10.00;99.90;;;;;;5031840;28;20485;-79
2021/05/19 03:34:51;;;;;;;1.42;1.13;;;10.00;99.90;;;;;;5031799;28;20017;-79
2021/05/19 03:37:17;;;;;;;2.25;0.98;;;9.90;99.90;;;;;;5033611;28;20083;-79
2021/05/19 03:39:44;;;;;;;2.53;0.98;;;10.10;99.90;;;;;;5033286;28;20052;-79
2021/05/19 03:42:09;;;;;;;2.50;1.00;;;10.20;99.90;;;;;;5032988;28;20064;-79
2021/05/19 03:44:35;;;;;;;2.15;1.10;;;10.20;99.90;;;;;;5015536;28;20083;-79
2021/05/19 03:47:01;;;;;;;2.83;0.88;;;10.20;99.90;;;;;;5031676;28;20030;-79
2021/05/19 03:49:28;;;;;;;2.70;1.20;;;10.20;99.90;;;;;;5036304;28;20500;-79
2021/05/19 03:51:54;;;;;;;4.55;1.10;;;10.10;99.90;;;;;;5056767;28;20025;-79
2021/05/19 03:54:20;;;;;;;3.47;1.27;;;10.20;99.90;;;;;;5038804;28;20025;-79
2021/05/19 03:56:48;;;;;;;1.85;1.52;;;10.10;99.90;;;;;;5038739;28;20387;-79
2021/05/19 03:59:14;;;;;;;2.17;1.73;;;10.20;99.90;;;;;;5038706;28;20024;-79
2021/05/19 04:01:39;;;;;;;4.07;1.50;;;10.10;99.90;;;;;;5056820;28;20417;-79
2021/05/19 04:04:05;;;;;;;2.38;1.33;;;10.10;99.90;;;;;;5056486;28;20017;-79
2021/05/19 04:06:31;;;;;;;3.25;1.35;;;10.20;99.90;;;;;;5038566;28;20025;-79
2021/05/19 04:08:57;;;;;;;2.53;1.20;;;10.20;99.90;;;;;;5038569;28;20025;-79
2021/05/19 04:11:23;;;;;;;2.47;1.33;;;10.10;99.90;;;;;;5038462;28;20032;-79
2021/05/19 04:13:49;;;;;;;4.38;1.55;;;10.00;99.90;;;;;;5038422;28;20447;-79
2021/05/19 04:16:15;;;;;;;4.80;1.45;;;10.10;99.90;;;;;;5038358;28;20386;-79
2021/05/19 04:18:41;;;;;;;9.32;3.13;;;10.20;99.90;;;;;;5038344;28;20025;-79
2021/05/19 04:21:07;;;;;;;3.10;1.60;;;10.20;99.90;;;;;;5038646;28;20029;-79
2021/05/19 04:23:36;;;;;;;2.17;1.48;;;10.10;99.90;;;;;;5038337;28;20060;-79
2021/05/19 04:26:02;;;;;;;4.28;1.80;;;10.20;99.90;;;;;;5038205;28;20082;-79
2021/05/19 04:28:28;;;;;;;2.95;1.80;;;10.20;99.90;;;;;;5056082;28;20021;-79
2021/05/19 04:30:54;;;;;;;3.05;1.40;;;10.10;99.90;;;;;;5038152;28;20029;-79
2021/05/19 04:33:22;;;;;;;2.85;1.83;;;10.10;99.90;;;;;;5056002;28;20460;-79
2021/05/19 04:35:47;;;;;;;3.72;1.60;;;10.10;99.90;;;;;;5038036;28;20021;-79
2021/05/19 04:38:14;;;;;;;5.00;1.70;;;10.20;99.90;;;;;;5055926;28;20036;-79
2021/05/19 04:40:40;;;;;;;2.85;1.75;;;10.30;99.90;;;;;;5037947;28;20025;-78
2021/05/19 04:43:08;;;;;;;2.22;1.63;;;10.30;99.90;;;;;;5037935;28;20059;-78
2021/05/19 04:45:35;;;;;;;7.43;1.92;;;10.20;99.90;;;;;;5037750;28;20025;-79
2021/05/19 04:48:01;;;;;;;4.00;1.80;;;10.20;99.90;;;;;;5037820;28;20396;-79
2021/05/19 04:50:26;;;;;;;5.45;2.15;;;10.00;99.90;;;;;;5055514;28;20056;-79
2021/05/19 04:52:52;;;;;;;3.90;2.00;;;10.00;99.90;;;;;;5037713;28;20017;-79
2021/05/19 04:55:18;;;;;;;2.17;1.60;;;10.10;99.90;;;;;;5055819;28;20078;-79
2021/05/19 04:57:44;;;;;;;2.08;1.70;;;10.20;99.90;;;;;;5055501;28;20025;-79
2021/05/19 05:00:10;;;;;;;4.60;2.00;;;10.20;99.90;;;;;;5036947;28;20025;-79
2021/05/19 05:02:39;;;;;;;3.55;1.70;;;10.00;99.90;;;;;;5054856;28;20032;-78
2021/05/19 05:05:06;;;;;;;4.05;1.80;;;10.20;99.90;;;;;;5037518;28;20393;-79
2021/05/19 05:07:32;;;;;;;2.22;1.73;;;10.20;99.90;;;;;;5037471;28;20488;-79
2021/05/19 05:09:59;;;;;;;3.38;1.90;;;10.20;99.90;;;;;;5055221;28;20032;-79
2021/05/19 05:12:24;;;;;;;2.42;1.90;;;10.30;99.90;;;;;;5055527;28;20017;-79
2021/05/19 05:14:50;;;;;;;3.17;1.85;;;10.30;99.90;;;;;;5037273;28;20108;-79
2021/05/19 05:17:16;;;;;;;4.03;2.15;;;10.30;99.90;;;;;;5037271;28;20025;-79
2021/05/19 05:19:42;;;;;;;2.55;1.80;;;10.40;99.90;;;;;;5037237;28;20122;-79
2021/05/19 05:22:08;;;;;;;3.33;1.95;;;10.30;99.90;;;;;;5037206;28;20503;-79
2021/05/19 05:24:35;;;;;;;3.95;1.77;;;10.40;99.90;;;;;;5037054;28;20079;-79
2021/05/19 05:27:01;;;;;;;2.45;1.70;;;10.40;99.90;;;;;;5037065;28;20031;-79
2021/05/19 05:29:27;;;;;;;4.47;1.77;;;10.40;99.90;;;;;;5055047;28;20430;-79
2021/05/19 05:31:52;;;;;;;2.30;1.52;;;10.40;99.90;;;;;;5037008;28;20103;-79
2021/05/19 05:34:18;;;;;;;6.55;1.98;;;10.40;99.90;;;;;;5054794;28;20491;-79
2021/05/19 05:36:44;;;;;;;2.78;1.75;;;10.50;99.90;;;;;;5054741;28;20029;-79
2021/05/19 05:39:09;;;;;;;5.63;1.88;;;10.60;99.90;;;;;;5054710;28;20536;-79
2021/05/19 05:41:35;;;;;;;4.72;1.73;;;10.70;99.90;;;;;;5036805;28;20025;-79
2021/05/19 05:44:01;;;;;;;3.78;1.70;;;10.80;99.90;;;;;;5037485;28;20021;-79
2021/05/19 05:46:27;;;;;;;1.92;1.60;;;10.70;99.90;;;;;;5054552;28;20036;-79
2021/05/19 05:48:52;;;;;;;3.15;1.50;;;10.60;99.90;;;;;;5036588;28;20114;-79
2021/05/19 05:51:18;;;;;;;5.78;1.80;;;10.60;99.90;;;;;;5054209;28;20084;-79
2021/05/19 05:53:44;;;;;;;2.45;1.98;;;10.60;99.90;;;;;;5036622;28;20185;-79
2021/05/19 05:56:09;;;;;;;4.43;1.88;;;10.50;99.90;;;;;;5054342;28;20425;-79
2021/05/19 05:58:35;;;;;;;3.50;1.98;;;10.60;99.90;;;;;;5036452;28;20136;-79
2021/05/19 06:01:01;;;;;;;2.90;1.63;;;10.70;99.90;;;;;;5036448;28;20024;-79
2021/05/19 06:03:27;;;;;;;2.20;1.77;;;10.60;99.90;;;;;;5036371;28;20388;-79
2021/05/19 06:05:52;;;;;;;4.07;2.20;;;10.60;99.90;;;;;;5054493;28;20032;-79
2021/05/19 06:08:18;;;;;;;6.32;1.77;;;10.70;99.90;;;;;;5036312;28;20063;-79
2021/05/19 06:10:44;;;;;;;4.93;1.58;;;10.70;99.90;;;;;;5036353;28;20021;-79
2021/05/19 06:13:09;;;;;;;4.10;1.58;;;10.70;99.90;;;;;;5036280;28;20496;-79
2021/05/19 06:15:35;;;;;;;2.00;1.60;;;10.80;99.90;;;;;;5036413;28;20021;-79
2021/05/19 06:18:01;;;;;;;2.67;1.90;;;11.00;99.90;;;;;;5036203;28;20056;-79
2021/05/19 06:20:26;;;;;;;2.97;1.75;;;11.00;99.90;;;;;;5036226;28;20361;-79
2021/05/19 06:22:52;;;;;;;6.00;1.60;;;10.90;99.90;;;;;;5036236;28;20040;-80
2021/05/19 06:25:18;;;;;;;5.53;2.40;;;10.90;99.90;;;;;;5036210;28;20032;-79
2021/05/19 06:27:44;;;;;;;2.50;1.52;;;11.00;99.90;;;;;;5053932;28;20029;-79
2021/05/19 06:30:10;;;;;;;2.78;1.65;;;11.30;99.90;;;;;;5036004;28;20124;-79
2021/05/19 06:32:36;;;;;;;4.20;1.80;;;11.50;99.90;;;;;;5053953;28;20464;-79
2021/05/19 06:35:03;;;;;;;3.58;2.00;;;11.60;99.90;;;;;;5053889;28;20384;-79
2021/05/19 06:37:28;;;;;;;4.82;1.65;;;11.60;99.90;;;;;;5053904;28;20096;-79
2021/05/19 06:39:54;;;;;;;3.63;1.77;;;11.60;99.90;;;;;;5035883;28;20579;-79
2021/05/19 06:42:20;;;;;;;4.38;1.80;;;11.70;99.90;;;;;;5035881;28;20028;-79
2021/05/19 06:44:46;;;;;;;4.50;1.88;;;11.70;99.90;;;;;;5035871;28;20469;-79
2021/05/19 06:47:12;;;;;;;3.25;1.85;;;11.60;99.90;;;;;;5053633;28;20032;-79
2021/05/19 06:49:38;;;;;;;5.55;2.47;;;11.50;99.90;;;;;;5053330;28;20048;-79
2021/05/19 06:52:04;;;;;;;3.50;1.85;;;11.50;99.90;;;;;;5035773;28;20031;-79
2021/05/19 06:54:29;;;;;;;4.78;2.22;;;11.60;99.90;;;;;;5035733;28;20093;-79
2021/05/19 06:56:58;;;;;;;4.68;2.13;;;11.80;99.90;;;;;;5053544;28;20489;-80
2021/05/19 06:59:24;;;;;;;3.28;2.13;;;11.80;99.90;;;;;;5035687;28;20108;-80
2021/05/19 07:01:49;;;;;;;4.45;2.10;;;11.80;99.90;;;;;;5053807;28;20558;-79
2021/05/19 07:04:17;;;;;;;4.30;2.30;;;11.80;99.90;;;;;;5035678;28;20473;-80
2021/05/19 07:06:43;;;;;;;3.70;2.05;;;11.70;99.90;;;;;;5035602;28;20029;-80
2021/05/19 07:09:08;;;;;;;5.20;2.00;;;11.70;99.90;;;;;;5053416;28;20027;-79
2021/05/19 07:11:34;;;;;;;6.03;2.67;;;11.70;99.90;;;;;;5035459;28;20029;-80
2021/05/19 07:14:01;;;;;;;2.33;1.70;;;11.70;99.90;;;;;;5053362;28;20013;-80
2021/05/19 07:16:27;;;;;;;2.83;1.90;;;11.80;99.90;;;;;;5053344;28;20104;-80
2021/05/19 07:18:55;;;;;;;3.45;1.95;;;11.80;99.90;;;;;;5035424;28;20052;-79
2021/05/19 07:21:24;;;;;;;4.10;1.90;;;11.80;99.90;;;;;;5035370;28;20025;-80
2021/05/19 07:23:51;;;;;;;4.30;2.20;;;11.90;99.90;;;;;;5035757;28;20036;-80
2021/05/19 07:26:19;;;;;;;2.60;1.70;;;11.90;99.90;;;;;;5057514;28;20029;-80
2021/05/19 07:28:45;;;;;;;5.10;1.60;;;12.00;99.90;;;;;;5057652;28;20040;-80
2021/05/19 07:31:10;;;;;;;4.00;2.17;;;12.00;99.90;;;;;;5057587;28;20021;-80
2021/05/19 07:33:36;;;;;;;3.03;1.85;;;11.90;99.90;;;;;;5039209;28;20017;-80
2021/05/19 07:36:02;;;;;;;7.00;2.08;;;11.90;99.90;;;;;;5057212;28;20507;-80
2021/05/19 07:38:28;;;;;;;4.20;2.05;;;12.00;99.90;;;;;;5039295;28;20029;-80
2021/05/19 07:40:53;;;;;;;4.15;1.88;;;11.90;99.90;;;;;;5039232;28;20119;-80
2021/05/19 07:43:19;;;;;;;5.43;2.17;;;12.00;99.90;;;;;;5039272;28;20057;-81
2021/05/19 07:45:45;;;;;;;4.60;2.08;;;11.80;99.90;;;;;;5057005;28;20472;-80
2021/05/19 07:48:11;;;;;;;3.47;1.77;;;11.90;99.90;;;;;;5039108;28;20534;-80
2021/05/19 07:50:37;;;;;;;6.57;1.95;;;11.80;99.90;;;;;;5056664;28;20087;-80
2021/05/19 07:53:04;;;;;;;3.90;1.80;;;11.90;99.90;;;;;;5022745;28;20036;-79
2021/05/19 07:55:51;;;;;;;5.07;1.75;;;12.10;99.90;;;;;;5056854;28;20492;-80
2021/05/19 07:58:24;;;;;;;4.13;1.60;;;12.10;99.90;;;;;;5057166;28;20109;-80
2021/05/19 08:01:07;;;;;;;4.63;2.13;;;12.20;99.90;;;;;;5056789;28;20029;-80
2021/05/19 08:03:33;;;;;;;3.80;1.88;;;12.20;99.90;;;;;;5056983;28;20414;-80
2021/05/19 08:05:58;;;;;;;4.25;2.17;;;12.40;99.90;;;;;;5056730;28;20032;-81
2021/05/19 08:08:24;;;;;;;7.95;1.90;;;12.30;99.90;;;;;;5038765;28;20025;-81
2021/05/19 08:10:50;;;;;;;5.50;2.08;;;12.30;99.90;;;;;;5038537;28;20101;-80
2021/05/19 08:13:16;;;;;;;4.30;1.92;;;12.30;99.90;;;;;;5056534;28;20047;-81
2021/05/19 08:15:42;;;;;;;3.63;1.90;;;12.40;99.90;;;;;;5038660;28;20025;-80
2021/05/19 08:18:09;;;;;;;6.57;2.15;;;12.40;99.90;;;;;;5038588;28;20025;-80
2021/05/19 08:20:35;;;;;;;6.07;2.22;;;12.50;99.90;;;;;;5056715;28;20037;-81
2021/05/19 08:23:01;;;;;;;4.95;1.88;;;12.50;99.90;;;;;;5056411;28;20033;-81
2021/05/19 08:25:27;;;;;;;7.35;2.20;;;12.70;99.90;;;;;;5038519;28;20075;-81
2021/05/19 08:27:54;;;;;;;2.15;1.52;;;12.70;99.90;;;;;;5056363;28;20480;-81
2021/05/19 08:30:20;;;;;;;8.60;2.03;;;13.20;99.90;;;;;;5056482;28;20029;-81
2021/05/19 08:32:45;;;;;;;4.57;1.63;;;13.60;99.90;;;;;;5038154;28;20017;-81
2021/05/19 08:35:11;;;;;;;2.50;1.20;;;13.60;99.90;;;;;;5038034;28;20036;-79
2021/05/19 08:37:37;;;;;;;2.80;1.17;;;13.60;99.90;;;;;;5038228;28;20036;-81
2021/05/19 08:40:05;;;;;;;3.95;1.35;;;13.70;99.90;;;;;;5038225;28;20021;-82
2021/05/19 08:42:36;;;;;;;4.03;1.27;;;13.90;99.90;;;;;;5038723;28;20052;-82
2021/05/19 08:45:03;;;;;;;5.28;1.27;;;13.90;99.90;;;;;;5056079;28;20392;-82
2021/05/19 08:47:28;;;;;;;4.22;1.10;;;14.10;99.90;;;;;;5055754;28;20481;-81
2021/05/19 08:49:54;;;;;;;4.88;1.13;;;14.20;99.90;;;;;;5037660;28;20091;-81
2021/05/19 08:52:21;;;;;;;5.40;1.13;;;14.10;99.90;;;;;;5038134;28;20124;-81
2021/05/19 08:54:49;;;;;;;2.22;1.00;;;13.80;99.90;;;;;;5038693;28;20444;-82
2021/05/19 08:57:17;;;;;;;4.97;1.15;;;13.80;99.90;;;;;;5037894;28;20021;-81
2021/05/19 08:59:43;;;;;;;2.72;0.98;;;13.90;99.90;;;;;;5037754;28;20028;-82
2021/05/19 09:02:14;;;;;;;3.15;1.20;;;13.90;99.90;;;;;;5038493;28;20029;-81
2021/05/19 09:04:41;;;;;;;2.00;0.90;;;14.10;99.90;;;;;;5038027;28;20040;-82
2021/05/19 09:07:08;;;;;;;3.53;0.90;;;14.10;99.90;;;;;;5037722;28;20025;-83
2021/05/19 09:09:36;;;;;;;6.65;1.15;;;14.20;99.90;;;;;;5037576;28;20526;-82
2021/05/19 09:12:21;;;;;;;5.85;0.80;;;14.50;99.90;;;;;;5037696;28;20048;-82
2021/05/19 09:15:04;;;;;;;2.35;1.10;;;14.50;99.90;;;;;;5038400;28;20477;-82
2021/05/19 09:17:35;;;;;;;2.75;0.80;;;14.80;99.90;;;;;;5037421;28;20028;-82
2021/05/19 09:20:04;;;;;;;3.72;1.05;;;14.80;99.90;;;;;;5037387;28;20032;-83
2021/05/19 09:22:33;;;;;;;2.95;0.73;;;14.50;99.90;;;;;;5037600;28;20048;-81
2021/05/19 09:25:02;;;;;;;3.33;0.63;;;14.80;99.90;;;;;;5037442;28;20021;-83
2021/05/19 09:27:41;;;;;;;2.40;0.70;;;15.00;99.90;;;;;;5055187;28;20043;-82
2021/05/19 09:30:09;;;;;;;2.75;0.50;;;14.90;99.90;;;;;;5037174;28;20025;-82
2021/05/19 09:32:37;;;;;;;3.65;0.57;;;15.20;99.90;;;;;;5037283;28;20021;-82
2021/05/19 09:35:04;;;;;;;3.95;0.52;;;15.60;99.90;;;;;;5037326;28;20074;-82
2021/05/19 09:37:30;;;;;;;1.92;0.43;;;15.70;99.90;;;;;;5054958;28;20445;-81
2021/05/19 09:39:58;;;;;;;1.20;0.45;;;15.80;99.90;;;;;;5037036;28;20025;-82
2021/05/19 09:42:35;;;;;;;1.17;0.38;;;15.70;99.90;;;;;;5036967;28;20033;-82
2021/05/19 09:45:30;;;;;;;2.05;0.60;;;15.80;99.90;;;;;;5036845;28;20036;-81
2021/05/19 09:47:57;;;;;;;2.93;0.50;;;15.80;99.90;;;;;;5036193;28;20408;-82
2021/05/19 09:50:33;;;;;;;2.60;0.40;;;15.90;99.20;;;;;;5036375;28;20508;-81
2021/05/19 09:53:08;;;;;;;1.92;0.60;;;16.00;99.20;;;;;;5054752;28;20064;-82
2021/05/19 09:55:35;;;;;;;3.28;1.25;;;16.30;99.90;;;;;;5054529;28;20096;-81
2021/05/19 09:58:02;;;;;;;2.67;0.60;;;16.30;98.80;;;;;;5036714;28;20056;-82
2021/05/19 10:00:29;;;;;;;1.10;0.68;;;16.20;98.10;;;;;;5036655;28;20021;-82
2021/05/19 10:02:56;;;;;;;2.08;0.50;;;16.40;99.10;;;;;;5036712;28;20025;-81
2021/05/19 10:07:55;;;;;;;2.53;0.87;;;16.30;95.10;;;;;;5054750;28;20025;-82
2021/05/19 10:10:26;;;;;;;0.65;0.40;;;16.40;95.70;;;;;;5054263;28;20155;-82
2021/05/19 10:12:52;;;;;;;4.00;0.80;;;16.70;96.40;;;;;;5054241;28;20498;-82
2021/05/19 10:15:28;;;;;;;1.75;0.63;;;17.00;98.10;;;;;;5054806;28;20096;-82
2021/05/19 10:18:01;;;;;;;3.08;0.80;;;17.00;95.10;;;;;;5054212;28;20143;-82
2021/05/19 10:20:31;;;;;;;3.30;0.98;;;17.20;95.70;;;;;;5054282;28;20495;-81
2021/05/19 10:22:58;;;;;;;2.65;0.70;;;17.20;93.60;;;;;;5054250;28;20028;-82
2021/05/19 10:25:41;;;;;;;3.22;1.00;;;17.20;94.80;;;;;;5054267;28;20027;-81
2021/05/19 10:28:12;;;;;;;5.20;1.07;;;17.10;90.20;;;;;;5036907;28;20487;-82
2021/05/19 10:30:52;;;;;;;1.27;0.50;;;17.40;91.30;;;;;;5054167;28;20036;-81
2021/05/19 10:33:30;;;;;;;4.38;0.68;;;17.80;88.80;;;;;;5036207;28;20052;-83
2021/05/19 10:35:57;;;;;;;1.52;0.40;;;17.90;86.30;;;;;;5036424;28;20032;-82
2021/05/19 10:38:32;;;;;;;2.97;0.88;;;18.00;86.60;;;;;;5036090;28;20126;-82
2021/05/19 10:41:00;;;;;;;5.07;0.70;;;18.20;89.20;;;;;;5036123;28;20083;-83
2021/05/19 10:43:48;;;;;;;5.85;0.80;;;18.70;86.20;;;;;;5054289;28;20526;-81
2021/05/19 10:46:35;;;;;;;2.83;0.80;;;18.30;91.00;;;;;;5035855;28;20029;-81
2021/05/19 10:49:00;;;;;;;1.65;0.60;;;17.50;92.20;;;;;;5035853;28;20036;-81
2021/05/19 10:51:45;;;;;;;4.85;0.70;;;17.30;93.20;;;;;;5035848;28;20049;-81
2021/05/19 11:00:25;;;;;;;2.00;0.60;;;18.80;91.50;;;;;;4992375;28;20390;-81
2021/05/19 11:02:57;;;;;;;3.22;0.70;;;19.10;80.50;;;;;;4992303;28;20029;-84
2021/05/19 11:05:36;;;;;;;4.68;0.70;;;19.20;83.10;;;;;;5022927;28;20037;-81
2021/05/19 11:08:13;;;;;;;4.78;0.80;;;19.20;85.10;;;;;;5053418;28;20528;-81
2021/05/19 11:10:48;;;;;;;2.95;0.60;;;19.20;85.90;;;;;;5035578;28;20073;-81
2021/05/19 11:13:19;;;;;;;3.72;0.63;;;18.40;86.10;;;;;;5035521;28;20021;-81
2021/05/19 11:21:04;;;;;;;2.60;0.68;;;19.10;82.50;;;;;;5053408;28;20358;-82
2021/05/19 11:23:30;;;;;;;2.40;0.70;;;18.80;84.50;;;;;;5035844;28;20165;-82
2021/05/19 11:26:12;;;;;;;2.58;0.70;;;19.40;81.90;;;;;;5035513;28;20503;-81
2021/05/19 11:28:40;;;;;;;3.45;0.77;;;19.10;80.80;;;;;;5035766;28;20028;-82
2021/05/19 11:31:17;;;;;;;4.72;0.80;;;19.60;78.30;;;;;;5035394;28;20029;-82
2021/05/19 11:33:50;;;;;;;1.10;0.55;;;19.90;74.50;;;;;;5035521;28;20048;-82
2021/05/19 11:36:56;;;;;;;2.33;0.40;;;20.20;71.30;;;;;;5053322;28;20027;-83
2021/05/19 11:39:38;;;;;;;2.97;0.68;;;20.50;65.60;;;;;;4975962;28;20026;-82
2021/05/19 11:42:15;;;;;;;2.17;0.60;;;20.80;68.00;;;;;;4992060;28;20037;-82
2021/05/19 11:45:03;;;;;;;2.33;0.60;;;21.00;66.70;;;;;;5032030;28;20562;-82
2021/05/19 11:47:29;;;;;;;1.20;0.40;;;20.80;65.90;;;;;;5053001;28;20031;-82
2021/05/19 11:50:14;;;;;;;1.77;0.50;;;21.30;68.20;;;;;;5052935;28;20037;-82
2021/05/19 11:52:47;;;;;;;3.13;0.70;;;21.70;65.60;;;;;;5035167;28;20028;-82
2021/05/19 11:55:44;;;;;;;1.80;0.57;;;;;;;;;;5035351;28;20027;-81
2021/05/19 11:58:32;;;;;;;3.80;0.65;;;21.80;60.70;;;;;;5023795;28;20056;-82
2021/05/19 12:01:01;;;;;;;1.55;0.52;;;21.50;60.00;;;;;;5035323;28;20032;-82
2021/05/19 12:03:30;;;;;;;2.08;0.50;;;21.80;63.30;;;;;;5035272;28;20087;-82
2021/05/19 12:06:01;;;;;;;3.38;0.50;;;22.30;61.00;;;;;;5034929;28;20025;-82
2021/05/19 12:08:35;;;;;;;5.03;0.60;;;22.40;58.60;;;;;;5052793;28;20029;-82
2021/05/19 12:11:10;;;;;;;2.13;0.50;;;22.00;59.50;;;;;;5036801;28;20120;-82
2021/05/19 12:13:56;;;;;;;1.90;0.60;;;21.50;59.60;;;;;;5038511;28;20057;-82
2021/05/19 12:16:33;;;;;;;1.40;0.45;;;21.80;57.50;;;;;;5038459;28;20032;-82
2021/05/19 12:19:01;;;;;;;3.20;0.55;;;21.40;62.00;;;;;;5038434;28;20024;-82
2021/05/19 12:21:28;;;;;;;1.80;0.52;;;22.20;60.80;;;;;;5038237;28;20036;-82
2021/05/19 12:23:54;;;;;;;3.22;0.60;;;22.70;57.90;;;;;;5038275;28;20033;-82
2021/05/19 12:26:21;;;;;;;2.03;0.65;;;22.90;58.10;;;;;;5038209;28;20050;-83
2021/05/19 12:28:47;;;;;;;7.75;0.60;;;22.90;57.20;;;;;;5056113;28;20032;-83
2021/05/19 12:31:30;;;;;;;2.13;0.52;;;22.50;56.70;;;;;;5038165;28;20025;-83
2021/05/19 12:33:57;;;;;;;2.25;0.60;;;22.90;56.70;;;;;;5038183;28;20029;-82
2021/05/19 12:36:28;;;;;;;1.60;0.40;;;22.80;53.00;;;;;;5038063;28;20112;-82
2021/05/19 12:38:58;;;;;;;1.70;0.40;;;22.70;55.10;;;;;;5038062;28;20480;-81
2021/05/19 12:42:00;;;;;;;4.07;0.57;;;22.40;54.70;;;;;;5037969;28;20567;-82
2021/05/19 12:44:29;;;;;;;4.10;0.70;;;21.10;56.20;;;;;;5024075;28;20116;-82
2021/05/19 12:47:01;;;;;;;4.30;1.00;;;20.10;58.40;;;;;;5037804;28;20029;-83
2021/05/19 12:49:27;;;;;;;2.20;0.70;;;19.30;63.90;;;;;;5037724;28;20024;-83
2021/05/19 12:51:59;;;;;;;3.28;0.52;;;19.10;67.40;;;;;;5037675;28;20031;-82
2021/05/19 12:54:33;;;;;;;4.78;0.80;;;19.60;64.20;;;;;;5037750;28;20370;-84
2021/05/19 12:57:05;;;;;;;4.82;0.57;;;18.90;63.80;;;;;;5037751;28;20021;-84
2021/05/19 12:59:53;;;;;;;1.17;0.60;;;18.40;64.50;;;;;;5037684;28;20025;-83
2021/05/19 13:02:22;;;;;;;3.65;0.60;;;18.00;65.50;;;;;;5037600;28;20389;-83
2021/05/19 13:04:48;;;;;;;3.35;0.68;;;17.50;63.90;;;;;;5037497;28;20025;-83
2021/05/19 13:07:19;;;;;;;3.88;0.75;;;18.40;64.60;;;;;;5037462;28;20021;-83
2021/05/19 13:09:48;;;;;;;6.03;2.08;;;19.80;61.80;;;;;;5037412;28;20438;-83